Soleil Weather Down

Nearby METAR Reports

 

KCNI - Canton/Cherokee, Georgia, USA
Distance from station: ENE 6mi, 10km
Updated: Sun, 22-May-2022 12:15pm EDT
Clear
Clear
 Wind from SW
Wind: SW 8 mph , 13 km/h
Temperature: 81°F , 27°C
Heat Index: 82°F , 28°C
Dew Point: 63°F , 17°C
Humidity: 54%
Barometer: 30.22 inHg , 1023.4 hPa
Clouds: Clear
Visibility: 10 miles , 16 km
2022/05/22 16:15 KCNI 221615Z AUTO 22007KT 10SM CLR 27/17 A3022 RMK AO2
KRYY - Marietta Mccolum, Georgia, USA
Distance from station: SSW 18mi, 29km
Updated: Sun, 22-May-2022 11:50am EDT
Few Clouds
Few Clouds
 Wind from varies
Wind: varies 6 mph , 9 km/h
Temperature: 82°F , 28°C
Heat Index: 84°F , 29°C
Dew Point: 66°F , 19°C
Humidity: 58%
Barometer: 30.22 inHg , 1023.4 hPa
Clouds: Few Clouds
Visibility: 10 miles , 16 km
Cloud details: Few Clouds 3500 ft
2022/05/22 15:50 KRYY 221550Z VRB05KT 10SM FEW035 28/19 A3022 RMK AO2 SLP220 T02780189 $
KVPC - Cartersville, Georgia, USA
Distance from station: WSW 22mi, 35km
Updated: Sun, 22-May-2022 12:15pm EDT
Clear
Clear
 Wind from varies
Wind: varies 7 mph , 11 km/h
Temperature: 84°F , 29°C
Heat Index: 85°F , 29°C
Dew Point: 64°F , 18°C
Humidity: 51%
Barometer: 30.19 inHg , 1022.4 hPa
Clouds: Clear
Visibility: 10 miles , 16 km
2022/05/22 16:15 KVPC 221615Z AUTO VRB06KT 10SM CLR 29/18 A3019 RMK AO2
 
KMGE - Dobbins Afb/Mari, Georgia, USA
Distance from station: S 24mi, 39km
Updated: Sun, 22-May-2022 11:56am EDT
Mostly cloudy
Mostly cloudy
 Wind from S
Wind: S 8 mph , 13 km/h
Temperature: 81°F , 27°C
Heat Index: 83°F , 28°C
Dew Point: 64°F , 18°C
Humidity: 58%
Barometer: 30.20 inHg , 1022.7 hPa
Clouds: Mostly cloudy
Visibility: 10 miles , 16 km
Cloud details: Few Clouds 3200 ft
Mostly cloudy 25000 ft
2022/05/22 15:56 KMGE 221556Z 19007KT 10SM FEW032 BKN250 27/18 A3020 RMK AO2A SLP218 T02730183 $
KPDK - Peachtree/Dekalb, Georgia, USA
Distance from station: SSE 29mi, 47km
Updated: Sun, 22-May-2022 11:53am EDT
Few Clouds
Few Clouds
 Wind from S
Wind: S 7 mph , 11 km/h
Temperature: 82°F , 28°C
Heat Index: 84°F , 29°C
Dew Point: 64°F , 18°C
Humidity: 55%
Barometer: 30.21 inHg , 1023 hPa
Clouds: Few Clouds
Visibility: 10 miles , 16 km
Cloud details: Few Clouds 3100 ft
2022/05/22 15:53 KPDK 221553Z 19006KT 10SM FEW031 28/18 A3021 RMK AO2 SLP213 T02780178
KFTY - Atlanta/Fulton, Georgia, USA
Distance from station: S 34mi, 54km
Updated: Sun, 22-May-2022 11:53am EDT
Partly cloudy
Partly cloudy
 Wind from SW
Wind: SW 8 mph , 13 km/h
Temperature: 82°F , 28°C
Heat Index: 84°F , 29°C
Dew Point: 66°F , 19°C
Humidity: 58%
Barometer: 30.21 inHg , 1023 hPa
Clouds: Partly cloudy
Visibility: 10 miles , 16 km
Cloud details: Few Clouds 2700 ft
Partly cloudy 3300 ft
2022/05/22 15:53 KFTY 221553Z 22007KT 170V260 10SM FEW027 SCT033 28/19 A3021 RMK AO2 SLP218 T02780189
 
KPUJ - Atlanta/Paulding, Georgia, USA
Distance from station: SW 34mi, 55km
Updated: Sun, 22-May-2022 12:15pm EDT
Partly cloudy
Partly cloudy
 Wind from S
Wind: S 6 mph , 9 km/h
Temperature: 81°F , 27°C
Heat Index: 82°F , 28°C
Dew Point: 63°F , 17°C
Humidity: 54%
Barometer: 30.22 inHg , 1023.4 hPa
Clouds: Partly cloudy
Cloud details: Partly cloudy 3100 ft
2022/05/22 16:15 KPUJ 221615Z AUTO 19005KT SCT031 27/17 A3022 RMK AO2 PWINO
KDNN - Dalton, Georgia, USA
Distance from station: NW 37mi, 59km
Updated: Sun, 22-May-2022 12:15pm EDT
Partly cloudy
Partly cloudy
 Wind from SSW
Wind: SSW 5 mph , 7 km/h
Temperature: 82°F , 28°C
Heat Index: 84°F , 29°C
Dew Point: 64°F , 18°C
Humidity: 55%
Barometer: 30.20 inHg , 1022.7 hPa
Clouds: Partly cloudy
Visibility: 10 miles , 16 km
Cloud details: Partly cloudy 3200 ft
2022/05/22 16:15 KDNN 221615Z AUTO 20004KT 10SM SCT032 28/18 A3020 RMK AO2
KLZU - Lawrenceville, Georgia, USA
Distance from station: ESE 37mi, 59km
Updated: Sun, 22-May-2022 12:03pm EDT
Mostly cloudy
Mostly cloudy
 Wind from WSW
Wind: WSW 10 mph , 17 km/h
Temperature: 82°F , 28°C
Heat Index: 83°F , 28°C
Dew Point: 63°F , 17°C
Humidity: 51%
Barometer: 30.22 inHg , 1023.4 hPa
Clouds: Mostly cloudy
Visibility: 10 miles , 16 km
Cloud details: Mostly cloudy 3600 ft
2022/05/22 16:03 KLZU 221603Z 24009KT 10SM BKN036 28/17 A3022 RMK AO2
 
KRMG - Rome, Georgia, USA
Distance from station: W 38mi, 61km
Updated: Sun, 22-May-2022 11:53am EDT
Clear
Clear
 Wind from SSW
Wind: SSW 8 mph , 13 km/h
Temperature: 84°F , 29°C
Heat Index: 85°F , 29°C
Dew Point: 64°F , 18°C
Humidity: 51%
Barometer: 30.18 inHg , 1022 hPa
Clouds: Clear
Visibility: 10 miles , 16 km
2022/05/22 15:53 KRMG 221553Z AUTO 20007KT 10SM CLR 29/18 A3018 RMK AO2 SLP209 T02890183
KGVL - Gainesville, Georgia, USA
Distance from station: E 39mi, 62km
Updated: Sun, 22-May-2022 11:53am EDT
Mostly cloudy
Mostly cloudy
 Wind from varies
Wind: varies 6 mph , 9 km/h
Temperature: 81°F , 27°C
Heat Index: 82°F , 28°C
Dew Point: 63°F , 17°C
Humidity: 54%
Barometer: 30.24 inHg , 1024 hPa
Clouds: Mostly cloudy
Visibility: 10 miles , 16 km
Cloud details: Few Clouds 3000 ft
Partly cloudy 3600 ft
Mostly cloudy 4500 ft
2022/05/22 15:53 KGVL 221553Z AUTO VRB05KT 10SM FEW030 SCT036 BKN045 27/17 A3024 RMK AO2 SLP223 T02670172
KATL - Atlanta, Georgia, USA
Distance from station: S 44mi, 71km
Updated: Sun, 22-May-2022 11:52am EDT
Partly cloudy
Partly cloudy
 Wind from SSW
Wind: SSW 10 mph , 17 km/h
Temperature: 81°F , 27°C
Heat Index: 83°F , 28°C
Dew Point: 64°F , 18°C
Humidity: 58%
Barometer: 30.22 inHg , 1023.4 hPa
Clouds: Partly cloudy
Visibility: 10 miles , 16 km
Cloud details: Few Clouds 3200 ft
Partly cloudy 25000 ft
2022/05/22 15:52 KATL 221552Z 21009KT 10SM FEW032 SCT250 27/18 A3022 RMK AO2 SLP223 T02720178